Airfield :
LOGIN :

Register | Disclaimer

   EN    FR    IT 

 










Legend :    VFR   Marginal VFR   IFR   Intensive IFR   Very Intensive IFR
Visi :
Ceiling :
>= 8 km
>= 3000ft
5 to 8 km
1000 to 3000 ft
1500m to 5 km
500 to 1000 ft
800 to 1500m
200 to 500 ft
< 800m
< 200 ft
Symbols :   Thunderstorms  Fog  Heavy snow  Heavy precipitations  Wind > 20 kt
SIGMETs :     Misc.  Thunderstorms  Icing  Turbulence  Mountain Waves  Volcanic Ashes






- Airport Elevation : 13 ft
- IATA code : LYX


EGMD - Lydd

CURRENT METAR :
  • 240450Z AUTO 20003KT 9000 BKN008/// BKN012/// OVC017/// 13/13 Q1004

EXPIRED METARs :
  • 240420Z AUTO VRB03KT 1500 BR FEW008/// BKN018/// 12/11 Q1004
  • 240350Z AUTO VRB03KT 1200 BR BKN009/// 12/11 Q1003
  • 240320Z AUTO VRB02KT 1800 BR SCT035/// 12/11 Q1004
  • 240250Z AUTO VRB02KT 9999 NCD 14/13 Q1004
  • 240220Z AUTO 18008KT 9999 NCD 14/13 Q1004

TAF AMD TAF EGMD
Valid from the 24 at 04:00 until the 24 at 12:00 UTC


240404Z 2404/2412 VRB03KT 3000 BR SCT008
TEMPO 2404/2412 1400 MIFG BKN005
PROB30
TEMPO 2404/2410 0700 FG BKN002
TEMPO 2410/2412 3000 RADZ BKN003
ATIS : +44 1797 322 422



MET'MAP, your aeronautical weather chart ! - Copyright ORBIFLY December 2007 - Disclaimer

ORBIFLY MET'MAP TEAM :

Programming & Development : Alexandra Zaïnal
Concept & Development : Baudouin d'Aumeries
Co-Development & Prog : Marc-Olivier Méhu
Technical & hardware support : Manuel Goepfert

Contact : metmap@orbifly.com




SOURCES & CREDITS :

   NOAA